Meteo Giornale » Osservazioni meteo Stati Uniti (USA) » Marietta Cobb Co-McCollum Fld
ore: 14:50 - Osservazioni Meteo Marietta Cobb Co-McCollum Fld
Lat. 34° 0' N Lon. 84° 35' W Alt. 317 metri s.l.m.
34 °C
Nuvoloso
Temp. 24 Ore
22 °C
34 °C
Nord
14.8 Km/h
Dew point 21 °C
Umidità 46 %
Visibilità 10 Km
Il sole sorge alle ore 07:12
Il sole tramonta alle ore 20:04
| Data e Ora | Cielo e Fenomeni | T °C | DP °C | Um. % | Pres. hPa | Vis. km | Vento km/h | |
|---|---|---|---|---|---|---|---|---|
| Oggi h: 14:50 | Nuvoloso | 34 | 21 | 46 | 1020 | 10 | N 14.8 | |
| Oggi h: 13:50 | Nuvoloso | 32 | 21 | 52 | 1020 | 10 | N/NO 9.3 | |
| Oggi h: 12:50 | Sereno | 33 | 21 | 49 | 1021 | 10 | N 5.5 | |
| Oggi h: 11:50 | Sereno | 32 | 21 | 52 | 1022 | 10 | N/NO 14.8 | |
| Oggi h: 10:50 | Sereno | 30 | 21 | 58 | 1022 | 10 | N/NO 9.3 | |
| Oggi h: 09:50 | Sereno | 28 | 22 | 69 | 1022 | 10 | N 0 | |
| Oggi h: 08:50 | Sereno | 25 | 22 | 83 | 1022 | 10 | N 0 | |
| Oggi h: 07:50 | Sereno | 23 | 22 | 94 | 1021 | 10 | N 0 | |
| Oggi h: 06:58 | Sereno | 22 | 22 | 100 | 1021 | 10 | N 0 | |
| Oggi h: 06:50 | Sereno | 23 | 22 | 94 | 1021 | 10 | N 0 | |
| Oggi h: 05:50 | Sereno | 22 | 21 | 94 | 1020 | 10 | N 0 | |
| Oggi h: 04:50 | Sereno | 23 | 21 | 88 | 1020 | 10 | N 0 | |
| Oggi h: 03:50 | Sereno | 23 | 21 | 88 | 1020 | 10 | N 0 | |
| Oggi h: 02:50 | Sereno | 23 | 22 | 94 | 1020 | 10 | N 0 | |
| Oggi h: 01:50 | Sereno | 24 | 21 | 83 | 1020 | 10 | N 5.5 | |
| Oggi h: 00:50 | Sereno | 24 | 21 | 83 | 1020 | 10 | N 0 | |
| Ieri h: 23:50 | Sereno | 25 | 21 | 78 | 1020 | 10 | N 0 | |
| Ieri h: 22:50 | Sereno | 26 | 21 | 73 | 1020 | 10 | N 0 | |
| Ieri h: 21:50 | Sereno | 27 | 20 | 65 | 1020 | 10 | N 0 | |
| Ieri h: 20:50 | Sereno | 28 | 18 | 54 | 1019 | 10 | N 5.5 | |
| Ieri h: 19:50 | Sereno | 31 | 19 | 48 | 1019 | 10 | N 5.5 | |
| Ieri h: 18:50 | Sereno | 33 | 18 | 41 | 1019 | 10 | N 7.4 | |
| Ieri h: 17:50 | Sereno | 33 | 18 | 41 | 1020 | 10 | N 5.5 | |
| Ieri h: 16:50 | Nuvoloso | 33 | 20 | 46 | 1020 | 10 | N 5.5 | |
| Ieri h: 15:50 | Poco Nuvoloso | 33 | 19 | 43 | 1020 | 10 | N 5.5 | |



